sensor_id;sensor_type;location;lat;lon;timestamp;P1;durP1;ratioP1;P2;durP2;ratioP2
24206;SDS011;12351;52.284;9.160;2024-03-08T00:02:20;23.37;;;13.47;;
24206;SDS011;12351;52.284;9.160;2024-03-08T00:05:06;20.30;;;11.70;;
24206;SDS011;12351;52.284;9.160;2024-03-08T00:07:55;21.00;;;12.87;;
24206;SDS011;12351;52.284;9.160;2024-03-08T00:10:41;22.43;;;12.93;;
24206;SDS011;12351;52.284;9.160;2024-03-08T00:13:29;22.00;;;12.00;;
24206;SDS011;12351;52.284;9.160;2024-03-08T00:16:15;18.77;;;11.77;;
24206;SDS011;12351;52.284;9.160;2024-03-08T00:19:05;21.93;;;12.43;;
24206;SDS011;12351;52.284;9.160;2024-03-08T00:21:51;20.90;;;12.50;;
24206;SDS011;12351;52.284;9.160;2024-03-08T00:24:38;22.37;;;12.70;;
24206;SDS011;12351;52.284;9.160;2024-03-08T00:27:24;23.20;;;12.80;;
24206;SDS011;12351;52.284;9.160;2024-03-08T00:30:11;21.23;;;12.90;;
24206;SDS011;12351;52.284;9.160;2024-03-08T00:32:57;20.50;;;12.50;;
24206;SDS011;12351;52.284;9.160;2024-03-08T00:35:44;21.67;;;12.70;;
24206;SDS011;12351;52.284;9.160;2024-03-08T00:38:32;22.13;;;12.13;;
24206;SDS011;12351;52.284;9.160;2024-03-08T00:41:19;20.87;;;13.00;;
24206;SDS011;12351;52.284;9.160;2024-03-08T00:44:05;21.57;;;13.17;;
24206;SDS011;12351;52.284;9.160;2024-03-08T00:46:53;19.33;;;12.60;;
24206;SDS011;12351;52.284;9.160;2024-03-08T00:49:41;22.60;;;12.30;;
24206;SDS011;12351;52.284;9.160;2024-03-08T00:52:28;24.17;;;13.00;;
24206;SDS011;12351;52.284;9.160;2024-03-08T00:55:15;20.80;;;12.77;;
24206;SDS011;12351;52.284;9.160;2024-03-08T00:58:03;22.87;;;13.10;;
24206;SDS011;12351;52.284;9.160;2024-03-08T01:00:50;23.57;;;12.63;;
24206;SDS011;12351;52.284;9.160;2024-03-08T01:03:37;22.20;;;12.20;;
24206;SDS011;12351;52.284;9.160;2024-03-08T01:06:23;21.97;;;12.53;;
24206;SDS011;12351;52.284;9.160;2024-03-08T01:09:12;20.07;;;13.27;;
24206;SDS011;12351;52.284;9.160;2024-03-08T01:12:00;23.00;;;12.67;;
24206;SDS011;12351;52.284;9.160;2024-03-08T01:14:46;22.87;;;12.60;;
24206;SDS011;12351;52.284;9.160;2024-03-08T01:17:35;21.63;;;12.20;;
24206;SDS011;12351;52.284;9.160;2024-03-08T01:20:21;27.23;;;13.53;;
24206;SDS011;12351;52.284;9.160;2024-03-08T01:23:08;23.90;;;12.43;;
24206;SDS011;12351;52.284;9.160;2024-03-08T01:25:56;21.00;;;12.57;;
24206;SDS011;12351;52.284;9.160;2024-03-08T01:28:43;21.90;;;12.70;;
24206;SDS011;12351;52.284;9.160;2024-03-08T01:31:30;21.37;;;12.53;;
24206;SDS011;12351;52.284;9.160;2024-03-08T01:34:17;20.67;;;12.70;;
24206;SDS011;12351;52.284;9.160;2024-03-08T01:37:04;23.37;;;12.87;;
24206;SDS011;12351;52.284;9.160;2024-03-08T01:39:52;22.37;;;13.30;;
24206;SDS011;12351;52.284;9.160;2024-03-08T01:42:39;21.00;;;12.50;;
24206;SDS011;12351;52.284;9.160;2024-03-08T01:45:26;20.03;;;12.30;;
24206;SDS011;12351;52.284;9.160;2024-03-08T01:48:15;22.13;;;12.83;;
24206;SDS011;12351;52.284;9.160;2024-03-08T01:51:03;24.07;;;13.13;;
24206;SDS011;12351;52.284;9.160;2024-03-08T01:53:53;20.10;;;12.13;;
24206;SDS011;12351;52.284;9.160;2024-03-08T01:56:41;20.10;;;12.30;;
24206;SDS011;12351;52.284;9.160;2024-03-08T01:59:28;23.33;;;13.37;;
24206;SDS011;12351;52.284;9.160;2024-03-08T02:02:15;24.37;;;13.23;;
24206;SDS011;12351;52.284;9.160;2024-03-08T02:05:04;22.00;;;12.80;;
24206;SDS011;12351;52.284;9.160;2024-03-08T02:07:51;23.97;;;12.70;;
24206;SDS011;12351;52.284;9.160;2024-03-08T02:10:41;20.30;;;12.53;;
24206;SDS011;12351;52.284;9.160;2024-03-08T02:13:29;22.63;;;12.33;;
24206;SDS011;12351;52.284;9.160;2024-03-08T02:19:05;24.63;;;13.63;;
24206;SDS011;12351;52.284;9.160;2024-03-08T02:21:54;24.47;;;13.37;;
24206;SDS011;12351;52.284;9.160;2024-03-08T02:24:42;23.40;;;13.60;;
24206;SDS011;12351;52.284;9.160;2024-03-08T02:27:30;23.53;;;12.73;;
24206;SDS011;12351;52.284;9.160;2024-03-08T02:30:19;22.43;;;12.73;;
24206;SDS011;12351;52.284;9.160;2024-03-08T02:33:05;25.00;;;12.93;;
24206;SDS011;12351;52.284;9.160;2024-03-08T02:35:54;22.03;;;13.73;;
24206;SDS011;12351;52.284;9.160;2024-03-08T02:38:41;24.23;;;13.47;;
24206;SDS011;12351;52.284;9.160;2024-03-08T02:41:28;23.03;;;13.13;;
24206;SDS011;12351;52.284;9.160;2024-03-08T02:44:16;23.90;;;13.70;;
24206;SDS011;12351;52.284;9.160;2024-03-08T02:47:02;25.07;;;13.20;;
24206;SDS011;12351;52.284;9.160;2024-03-08T02:49:50;23.17;;;13.77;;
24206;SDS011;12351;52.284;9.160;2024-03-08T02:52:36;23.87;;;13.80;;
24206;SDS011;12351;52.284;9.160;2024-03-08T02:55:24;23.63;;;13.43;;
24206;SDS011;12351;52.284;9.160;2024-03-08T02:58:11;22.40;;;13.17;;
24206;SDS011;12351;52.284;9.160;2024-03-08T03:00:59;26.50;;;13.73;;
24206;SDS011;12351;52.284;9.160;2024-03-08T03:03:46;28.50;;;14.10;;
24206;SDS011;12351;52.284;9.160;2024-03-08T03:06:35;23.80;;;13.67;;
24206;SDS011;12351;52.284;9.160;2024-03-08T03:09:23;23.13;;;13.33;;
24206;SDS011;12351;52.284;9.160;2024-03-08T03:12:10;21.40;;;13.20;;
24206;SDS011;12351;52.284;9.160;2024-03-08T03:14:58;25.67;;;13.70;;
24206;SDS011;12351;52.284;9.160;2024-03-08T03:17:45;25.27;;;13.70;;
24206;SDS011;12351;52.284;9.160;2024-03-08T03:20:32;24.00;;;13.97;;
24206;SDS011;12351;52.284;9.160;2024-03-08T03:23:21;26.07;;;13.93;;
24206;SDS011;12351;52.284;9.160;2024-03-08T03:26:10;23.47;;;13.93;;
24206;SDS011;12351;52.284;9.160;2024-03-08T03:28:57;25.33;;;13.73;;
24206;SDS011;12351;52.284;9.160;2024-03-08T03:31:46;27.77;;;14.17;;
24206;SDS011;12351;52.284;9.160;2024-03-08T03:34:32;24.83;;;14.00;;
24206;SDS011;12351;52.284;9.160;2024-03-08T03:37:21;22.60;;;13.17;;
24206;SDS011;12351;52.284;9.160;2024-03-08T03:40:08;21.77;;;13.47;;
24206;SDS011;12351;52.284;9.160;2024-03-08T03:42:55;25.03;;;14.13;;
24206;SDS011;12351;52.284;9.160;2024-03-08T03:45:44;23.60;;;14.17;;
24206;SDS011;12351;52.284;9.160;2024-03-08T03:48:31;23.87;;;14.50;;
24206;SDS011;12351;52.284;9.160;2024-03-08T03:51:17;21.30;;;13.13;;
24206;SDS011;12351;52.284;9.160;2024-03-08T03:54:08;27.27;;;14.13;;
24206;SDS011;12351;52.284;9.160;2024-03-08T03:56:54;24.40;;;13.30;;
24206;SDS011;12351;52.284;9.160;2024-03-08T03:59:41;25.23;;;14.37;;
24206;SDS011;12351;52.284;9.160;2024-03-08T04:02:27;25.53;;;14.50;;
24206;SDS011;12351;52.284;9.160;2024-03-08T04:05:15;22.93;;;13.50;;
24206;SDS011;12351;52.284;9.160;2024-03-08T04:08:01;26.30;;;13.80;;
24206;SDS011;12351;52.284;9.160;2024-03-08T04:10:48;21.67;;;13.70;;
24206;SDS011;12351;52.284;9.160;2024-03-08T04:13:35;25.13;;;14.47;;
24206;SDS011;12351;52.284;9.160;2024-03-08T04:16:23;22.00;;;13.87;;
24206;SDS011;12351;52.284;9.160;2024-03-08T04:19:11;26.63;;;13.77;;
24206;SDS011;12351;52.284;9.160;2024-03-08T04:21:58;26.03;;;13.70;;
24206;SDS011;12351;52.284;9.160;2024-03-08T04:24:45;26.83;;;14.40;;
24206;SDS011;12351;52.284;9.160;2024-03-08T04:27:32;29.87;;;14.87;;
24206;SDS011;12351;52.284;9.160;2024-03-08T04:30:19;29.03;;;14.60;;
24206;SDS011;12351;52.284;9.160;2024-03-08T04:33:07;24.70;;;14.90;;
24206;SDS011;12351;52.284;9.160;2024-03-08T04:35:54;30.97;;;16.03;;
24206;SDS011;12351;52.284;9.160;2024-03-08T04:38:41;28.37;;;15.50;;
24206;SDS011;12351;52.284;9.160;2024-03-08T04:41:29;27.90;;;14.93;;
24206;SDS011;12351;52.284;9.160;2024-03-08T04:44:15;27.90;;;15.33;;
24206;SDS011;12351;52.284;9.160;2024-03-08T04:47:03;28.57;;;15.70;;
24206;SDS011;12351;52.284;9.160;2024-03-08T04:49:50;28.70;;;15.23;;
24206;SDS011;12351;52.284;9.160;2024-03-08T04:52:37;30.43;;;15.97;;
24206;SDS011;12351;52.284;9.160;2024-03-08T04:55:24;26.80;;;15.67;;
24206;SDS011;12351;52.284;9.160;2024-03-08T04:58:11;30.17;;;16.73;;
24206;SDS011;12351;52.284;9.160;2024-03-08T05:00:58;27.97;;;16.47;;
24206;SDS011;12351;52.284;9.160;2024-03-08T05:03:46;31.57;;;16.60;;
24206;SDS011;12351;52.284;9.160;2024-03-08T05:06:34;30.17;;;16.37;;
24206;SDS011;12351;52.284;9.160;2024-03-08T05:09:22;31.03;;;16.63;;
24206;SDS011;12351;52.284;9.160;2024-03-08T05:12:10;30.17;;;17.47;;
24206;SDS011;12351;52.284;9.160;2024-03-08T05:14:56;30.03;;;17.00;;
24206;SDS011;12351;52.284;9.160;2024-03-08T05:17:43;32.73;;;16.90;;
24206;SDS011;12351;52.284;9.160;2024-03-08T05:20:30;30.53;;;16.63;;
24206;SDS011;12351;52.284;9.160;2024-03-08T05:23:16;29.70;;;17.60;;
24206;SDS011;12351;52.284;9.160;2024-03-08T05:26:04;29.80;;;16.33;;
24206;SDS011;12351;52.284;9.160;2024-03-08T05:28:50;29.93;;;16.47;;
24206;SDS011;12351;52.284;9.160;2024-03-08T05:34:28;28.33;;;16.60;;
24206;SDS011;12351;52.284;9.160;2024-03-08T05:37:15;33.00;;;17.07;;
24206;SDS011;12351;52.284;9.160;2024-03-08T05:40:04;32.30;;;17.00;;
24206;SDS011;12351;52.284;9.160;2024-03-08T05:42:53;31.23;;;17.00;;
24206;SDS011;12351;52.284;9.160;2024-03-08T05:45:40;30.87;;;17.77;;
24206;SDS011;12351;52.284;9.160;2024-03-08T05:48:27;31.60;;;17.93;;
24206;SDS011;12351;52.284;9.160;2024-03-08T05:51:17;32.83;;;17.73;;
24206;SDS011;12351;52.284;9.160;2024-03-08T05:54:06;32.27;;;16.93;;
24206;SDS011;12351;52.284;9.160;2024-03-08T05:56:55;32.37;;;17.63;;
24206;SDS011;12351;52.284;9.160;2024-03-08T05:59:41;29.60;;;16.27;;
24206;SDS011;12351;52.284;9.160;2024-03-08T06:02:28;30.73;;;16.17;;
24206;SDS011;12351;52.284;9.160;2024-03-08T06:05:18;30.63;;;16.80;;
24206;SDS011;12351;52.284;9.160;2024-03-08T06:08:05;31.13;;;16.63;;
24206;SDS011;12351;52.284;9.160;2024-03-08T06:10:52;34.70;;;17.17;;
24206;SDS011;12351;52.284;9.160;2024-03-08T06:13:38;31.80;;;17.03;;
24206;SDS011;12351;52.284;9.160;2024-03-08T06:16:29;30.40;;;16.53;;
24206;SDS011;12351;52.284;9.160;2024-03-08T06:19:15;32.10;;;16.67;;
24206;SDS011;12351;52.284;9.160;2024-03-08T06:22:03;32.73;;;17.57;;
24206;SDS011;12351;52.284;9.160;2024-03-08T06:24:50;34.33;;;17.43;;
24206;SDS011;12351;52.284;9.160;2024-03-08T06:27:40;30.37;;;16.60;;
24206;SDS011;12351;52.284;9.160;2024-03-08T06:30:27;29.83;;;16.27;;
24206;SDS011;12351;52.284;9.160;2024-03-08T06:33:15;30.70;;;16.83;;
24206;SDS011;12351;52.284;9.160;2024-03-08T06:36:01;31.40;;;17.50;;
24206;SDS011;12351;52.284;9.160;2024-03-08T06:38:48;34.00;;;18.00;;
24206;SDS011;12351;52.284;9.160;2024-03-08T06:41:36;31.50;;;16.80;;
24206;SDS011;12351;52.284;9.160;2024-03-08T06:44:23;31.93;;;16.97;;
24206;SDS011;12351;52.284;9.160;2024-03-08T06:47:10;32.87;;;16.90;;
24206;SDS011;12351;52.284;9.160;2024-03-08T06:49:57;30.53;;;16.57;;
24206;SDS011;12351;52.284;9.160;2024-03-08T06:52:44;31.47;;;17.33;;
24206;SDS011;12351;52.284;9.160;2024-03-08T06:55:31;31.23;;;16.63;;
24206;SDS011;12351;52.284;9.160;2024-03-08T06:58:18;31.83;;;16.97;;
24206;SDS011;12351;52.284;9.160;2024-03-08T07:01:04;32.20;;;17.47;;
24206;SDS011;12351;52.284;9.160;2024-03-08T07:03:51;31.03;;;17.43;;
24206;SDS011;12351;52.284;9.160;2024-03-08T07:06:39;31.90;;;16.83;;
24206;SDS011;12351;52.284;9.160;2024-03-08T07:09:31;34.80;;;17.83;;
24206;SDS011;12351;52.284;9.160;2024-03-08T07:12:17;31.00;;;17.00;;
24206;SDS011;12351;52.284;9.160;2024-03-08T07:15:05;29.13;;;16.53;;
24206;SDS011;12351;52.284;9.160;2024-03-08T07:17:53;31.87;;;17.53;;
24206;SDS011;12351;52.284;9.160;2024-03-08T07:20:41;32.20;;;16.83;;
24206;SDS011;12351;52.284;9.160;2024-03-08T07:23:28;32.67;;;17.33;;
24206;SDS011;12351;52.284;9.160;2024-03-08T07:26:16;31.63;;;17.33;;
24206;SDS011;12351;52.284;9.160;2024-03-08T07:29:04;30.40;;;17.23;;
24206;SDS011;12351;52.284;9.160;2024-03-08T07:31:52;30.03;;;17.30;;
24206;SDS011;12351;52.284;9.160;2024-03-08T07:34:41;31.97;;;18.00;;
24206;SDS011;12351;52.284;9.160;2024-03-08T07:37:28;34.83;;;17.93;;
24206;SDS011;12351;52.284;9.160;2024-03-08T07:40:15;35.30;;;18.23;;
24206;SDS011;12351;52.284;9.160;2024-03-08T07:43:03;33.80;;;18.13;;
24206;SDS011;12351;52.284;9.160;2024-03-08T07:45:50;32.27;;;18.00;;
24206;SDS011;12351;52.284;9.160;2024-03-08T07:48:38;33.97;;;16.87;;
24206;SDS011;12351;52.284;9.160;2024-03-08T07:51:26;32.87;;;18.40;;
24206;SDS011;12351;52.284;9.160;2024-03-08T07:54:13;35.50;;;17.60;;
24206;SDS011;12351;52.284;9.160;2024-03-08T07:56:59;32.07;;;17.90;;
24206;SDS011;12351;52.284;9.160;2024-03-08T07:59:48;34.20;;;18.10;;
24206;SDS011;12351;52.284;9.160;2024-03-08T08:02:36;34.57;;;18.93;;
24206;SDS011;12351;52.284;9.160;2024-03-08T08:05:22;31.47;;;18.17;;
24206;SDS011;12351;52.284;9.160;2024-03-08T08:08:10;31.83;;;18.90;;
24206;SDS011;12351;52.284;9.160;2024-03-08T08:10:58;32.77;;;17.67;;
24206;SDS011;12351;52.284;9.160;2024-03-08T08:13:46;32.03;;;17.23;;
24206;SDS011;12351;52.284;9.160;2024-03-08T08:16:33;30.47;;;17.37;;
24206;SDS011;12351;52.284;9.160;2024-03-08T08:19:21;30.07;;;16.67;;
24206;SDS011;12351;52.284;9.160;2024-03-08T08:22:07;33.87;;;18.37;;
24206;SDS011;12351;52.284;9.160;2024-03-08T08:24:55;32.77;;;17.13;;
24206;SDS011;12351;52.284;9.160;2024-03-08T08:27:41;34.33;;;18.27;;
24206;SDS011;12351;52.284;9.160;2024-03-08T08:30:28;30.37;;;17.50;;
24206;SDS011;12351;52.284;9.160;2024-03-08T08:33:14;27.43;;;16.40;;
24206;SDS011;12351;52.284;9.160;2024-03-08T08:36:01;30.33;;;16.80;;
24206;SDS011;12351;52.284;9.160;2024-03-08T08:38:48;29.83;;;16.53;;
24206;SDS011;12351;52.284;9.160;2024-03-08T08:41:36;31.07;;;16.70;;
24206;SDS011;12351;52.284;9.160;2024-03-08T08:44:22;29.17;;;15.83;;
24206;SDS011;12351;52.284;9.160;2024-03-08T08:47:11;30.10;;;16.17;;
24206;SDS011;12351;52.284;9.160;2024-03-08T08:49:58;30.40;;;17.67;;
24206;SDS011;12351;52.284;9.160;2024-03-08T08:52:45;31.80;;;16.83;;
24206;SDS011;12351;52.284;9.160;2024-03-08T08:55:32;27.17;;;16.20;;
24206;SDS011;12351;52.284;9.160;2024-03-08T08:58:22;30.20;;;16.83;;
24206;SDS011;12351;52.284;9.160;2024-03-08T09:01:10;28.10;;;16.37;;
24206;SDS011;12351;52.284;9.160;2024-03-08T09:03:58;27.13;;;15.63;;
24206;SDS011;12351;52.284;9.160;2024-03-08T09:06:44;27.03;;;15.83;;
24206;SDS011;12351;52.284;9.160;2024-03-08T09:09:32;29.63;;;16.43;;
24206;SDS011;12351;52.284;9.160;2024-03-08T09:12:22;28.73;;;16.40;;
24206;SDS011;12351;52.284;9.160;2024-03-08T09:15:10;29.03;;;17.00;;
24206;SDS011;12351;52.284;9.160;2024-03-08T09:17:56;27.73;;;16.10;;
24206;SDS011;12351;52.284;9.160;2024-03-08T09:20:44;28.10;;;16.90;;
24206;SDS011;12351;52.284;9.160;2024-03-08T09:23:31;27.63;;;15.87;;
24206;SDS011;12351;52.284;9.160;2024-03-08T09:26:19;28.53;;;15.90;;
24206;SDS011;12351;52.284;9.160;2024-03-08T09:29:07;31.13;;;17.23;;
24206;SDS011;12351;52.284;9.160;2024-03-08T09:31:55;27.03;;;16.33;;
24206;SDS011;12351;52.284;9.160;2024-03-08T09:34:42;32.03;;;16.80;;
24206;SDS011;12351;52.284;9.160;2024-03-08T09:37:29;29.63;;;17.13;;
24206;SDS011;12351;52.284;9.160;2024-03-08T09:40:18;27.67;;;16.60;;
24206;SDS011;12351;52.284;9.160;2024-03-08T09:43:05;26.73;;;16.27;;
24206;SDS011;12351;52.284;9.160;2024-03-08T09:45:51;28.87;;;17.27;;
24206;SDS011;12351;52.284;9.160;2024-03-08T09:48:39;31.93;;;17.53;;
24206;SDS011;12351;52.284;9.160;2024-03-08T09:51:27;26.23;;;15.47;;
24206;SDS011;12351;52.284;9.160;2024-03-08T09:54:17;25.50;;;15.67;;
24206;SDS011;12351;52.284;9.160;2024-03-08T09:57:04;31.20;;;17.50;;
24206;SDS011;12351;52.284;9.160;2024-03-08T09:59:53;30.37;;;16.70;;
24206;SDS011;12351;52.284;9.160;2024-03-08T10:02:41;28.00;;;16.97;;
24206;SDS011;12351;52.284;9.160;2024-03-08T10:05:27;28.70;;;17.40;;
24206;SDS011;12351;52.284;9.160;2024-03-08T10:08:16;29.90;;;16.80;;
24206;SDS011;12351;52.284;9.160;2024-03-08T10:11:04;28.27;;;17.33;;
24206;SDS011;12351;52.284;9.160;2024-03-08T10:13:53;28.83;;;17.07;;
24206;SDS011;12351;52.284;9.160;2024-03-08T10:16:42;27.97;;;17.40;;
24206;SDS011;12351;52.284;9.160;2024-03-08T10:19:34;28.50;;;16.80;;
24206;SDS011;12351;52.284;9.160;2024-03-08T10:22:21;33.08;;;16.95;;
24206;SDS011;12351;52.284;9.160;2024-03-08T10:25:09;28.87;;;16.93;;
24206;SDS011;12351;52.284;9.160;2024-03-08T10:27:57;29.98;;;17.35;;
24206;SDS011;12351;52.284;9.160;2024-03-08T10:30:46;26.05;;;16.67;;
24206;SDS011;12351;52.284;9.160;2024-03-08T10:33:33;25.90;;;16.62;;
24206;SDS011;12351;52.284;9.160;2024-03-08T10:36:20;27.52;;;15.78;;
24206;SDS011;12351;52.284;9.160;2024-03-08T10:39:12;26.85;;;16.27;;
24206;SDS011;12351;52.284;9.160;2024-03-08T10:41:58;27.02;;;15.85;;
24206;SDS011;12351;52.284;9.160;2024-03-08T10:44:49;26.33;;;15.72;;
24206;SDS011;12351;52.284;9.160;2024-03-08T10:47:37;26.87;;;15.28;;
24206;SDS011;12351;52.284;9.160;2024-03-08T10:50:26;27.80;;;15.32;;
24206;SDS011;12351;52.284;9.160;2024-03-08T10:53:15;25.17;;;15.20;;
24206;SDS011;12351;52.284;9.160;2024-03-08T10:56:05;28.87;;;16.25;;
24206;SDS011;12351;52.284;9.160;2024-03-08T10:58:52;25.30;;;15.48;;
24206;SDS011;12351;52.284;9.160;2024-03-08T11:01:41;25.43;;;15.70;;
24206;SDS011;12351;52.284;9.160;2024-03-08T11:04:28;26.20;;;15.53;;
24206;SDS011;12351;52.284;9.160;2024-03-08T11:07:19;26.20;;;14.75;;
24206;SDS011;12351;52.284;9.160;2024-03-08T11:10:07;24.87;;;15.45;;
24206;SDS011;12351;52.284;9.160;2024-03-08T11:12:56;26.25;;;15.23;;
24206;SDS011;12351;52.284;9.160;2024-03-08T11:15:44;27.05;;;15.72;;
24206;SDS011;12351;52.284;9.160;2024-03-08T11:18:35;26.40;;;15.25;;
24206;SDS011;12351;52.284;9.160;2024-03-08T11:21:23;23.02;;;14.70;;
24206;SDS011;12351;52.284;9.160;2024-03-08T11:24:15;23.67;;;15.30;;
24206;SDS011;12351;52.284;9.160;2024-03-08T11:27:04;25.97;;;15.05;;
24206;SDS011;12351;52.284;9.160;2024-03-08T11:35:31;24.77;;;14.53;;
24206;SDS011;12351;52.284;9.160;2024-03-08T11:38:20;20.52;;;13.58;;
24206;SDS011;12351;52.284;9.160;2024-03-08T11:41:07;22.00;;;14.45;;
24206;SDS011;12351;52.284;9.160;2024-03-08T11:44:01;21.10;;;13.50;;
24206;SDS011;12351;52.284;9.160;2024-03-08T11:46:46;25.50;;;15.32;;
24206;SDS011;12351;52.284;9.160;2024-03-08T11:49:33;26.75;;;16.00;;
24206;SDS011;12351;52.284;9.160;2024-03-08T11:52:21;23.02;;;15.40;;
24206;SDS011;12351;52.284;9.160;2024-03-08T11:55:10;21.42;;;14.35;;
24206;SDS011;12351;52.284;9.160;2024-03-08T11:58:01;25.75;;;16.12;;
24206;SDS011;12351;52.284;9.160;2024-03-08T12:00:50;26.07;;;16.30;;
24206;SDS011;12351;52.284;9.160;2024-03-08T12:03:39;23.55;;;14.87;;
24206;SDS011;12351;52.284;9.160;2024-03-08T12:06:35;23.30;;;15.08;;
24206;SDS011;12351;52.284;9.160;2024-03-08T12:09:17;25.10;;;15.25;;
24206;SDS011;12351;52.284;9.160;2024-03-08T12:12:06;25.48;;;15.13;;
24206;SDS011;12351;52.284;9.160;2024-03-08T12:14:54;22.60;;;14.73;;
24206;SDS011;12351;52.284;9.160;2024-03-08T12:17:43;23.47;;;14.95;;
24206;SDS011;12351;52.284;9.160;2024-03-08T12:20:32;23.18;;;15.32;;
24206;SDS011;12351;52.284;9.160;2024-03-08T12:23:20;24.02;;;15.13;;
24206;SDS011;12351;52.284;9.160;2024-03-08T12:31:51;22.48;;;15.43;;
24206;SDS011;12351;52.284;9.160;2024-03-08T12:34:41;21.75;;;14.68;;
24206;SDS011;12351;52.284;9.160;2024-03-08T12:37:30;23.92;;;15.60;;
24206;SDS011;12351;52.284;9.160;2024-03-08T12:40:18;22.55;;;14.18;;
24206;SDS011;12351;52.284;9.160;2024-03-08T12:43:07;21.90;;;14.07;;
24206;SDS011;12351;52.284;9.160;2024-03-08T12:45:55;25.32;;;15.03;;
24206;SDS011;12351;52.284;9.160;2024-03-08T12:48:44;25.50;;;15.58;;
24206;SDS011;12351;52.284;9.160;2024-03-08T12:51:33;22.13;;;14.85;;
24206;SDS011;12351;52.284;9.160;2024-03-08T12:54:21;24.98;;;15.35;;
24206;SDS011;12351;52.284;9.160;2024-03-08T12:57:09;22.50;;;14.40;;
24206;SDS011;12351;52.284;9.160;2024-03-08T12:59:55;21.70;;;14.60;;
24206;SDS011;12351;52.284;9.160;2024-03-08T13:02:42;23.62;;;15.53;;
24206;SDS011;12351;52.284;9.160;2024-03-08T13:05:30;21.37;;;15.05;;
24206;SDS011;12351;52.284;9.160;2024-03-08T13:08:18;23.98;;;15.63;;
24206;SDS011;12351;52.284;9.160;2024-03-08T13:11:08;23.45;;;15.15;;
24206;SDS011;12351;52.284;9.160;2024-03-08T13:13:58;25.20;;;16.23;;
24206;SDS011;12351;52.284;9.160;2024-03-08T13:16:45;23.65;;;15.45;;
24206;SDS011;12351;52.284;9.160;2024-03-08T13:19:34;24.82;;;15.45;;
24206;SDS011;12351;52.284;9.160;2024-03-08T13:22:21;22.80;;;15.48;;
24206;SDS011;12351;52.284;9.160;2024-03-08T13:25:09;22.93;;;14.80;;
24206;SDS011;12351;52.284;9.160;2024-03-08T13:27:57;22.22;;;14.55;;
24206;SDS011;12351;52.284;9.160;2024-03-08T13:30:45;20.57;;;14.07;;
24206;SDS011;12351;52.284;9.160;2024-03-08T13:33:33;23.65;;;15.18;;
24206;SDS011;12351;52.284;9.160;2024-03-08T13:36:22;24.20;;;14.83;;
24206;SDS011;12351;52.284;9.160;2024-03-08T13:39:12;24.12;;;15.40;;
24206;SDS011;12351;52.284;9.160;2024-03-08T13:42:01;22.82;;;15.80;;
24206;SDS011;12351;52.284;9.160;2024-03-08T13:44:50;24.67;;;15.32;;
24206;SDS011;12351;52.284;9.160;2024-03-08T13:47:38;23.50;;;14.90;;
24206;SDS011;12351;52.284;9.160;2024-03-08T13:50:28;22.30;;;15.10;;
24206;SDS011;12351;52.284;9.160;2024-03-08T13:53:16;24.98;;;16.02;;
24206;SDS011;12351;52.284;9.160;2024-03-08T13:56:04;22.32;;;15.55;;
24206;SDS011;12351;52.284;9.160;2024-03-08T13:58:53;22.10;;;15.72;;
24206;SDS011;12351;52.284;9.160;2024-03-08T14:01:41;25.60;;;16.67;;
24206;SDS011;12351;52.284;9.160;2024-03-08T14:04:36;24.37;;;15.75;;
24206;SDS011;12351;52.284;9.160;2024-03-08T14:07:25;22.22;;;15.70;;
24206;SDS011;12351;52.284;9.160;2024-03-08T14:10:14;21.45;;;14.93;;
24206;SDS011;12351;52.284;9.160;2024-03-08T14:13:05;23.30;;;16.12;;
24206;SDS011;12351;52.284;9.160;2024-03-08T14:15:52;22.50;;;15.53;;
24206;SDS011;12351;52.284;9.160;2024-03-08T14:18:40;24.05;;;15.88;;
24206;SDS011;12351;52.284;9.160;2024-03-08T14:21:28;24.87;;;16.65;;
24206;SDS011;12351;52.284;9.160;2024-03-08T14:24:15;24.00;;;16.65;;
24206;SDS011;12351;52.284;9.160;2024-03-08T14:27:04;25.20;;;17.05;;
24206;SDS011;12351;52.284;9.160;2024-03-08T14:29:54;26.27;;;15.55;;
24206;SDS011;12351;52.284;9.160;2024-03-08T14:32:43;22.10;;;15.63;;
24206;SDS011;12351;52.284;9.160;2024-03-08T14:35:34;24.20;;;16.85;;
24206;SDS011;12351;52.284;9.160;2024-03-08T14:38:21;27.30;;;16.80;;
24206;SDS011;12351;52.284;9.160;2024-03-08T14:41:11;25.27;;;15.23;;
24206;SDS011;12351;52.284;9.160;2024-03-08T14:43:59;23.45;;;16.97;;
24206;SDS011;12351;52.284;9.160;2024-03-08T14:46:47;24.47;;;16.40;;
24206;SDS011;12351;52.284;9.160;2024-03-08T14:49:35;23.30;;;16.05;;
24206;SDS011;12351;52.284;9.160;2024-03-08T14:52:23;22.65;;;15.53;;
24206;SDS011;12351;52.284;9.160;2024-03-08T14:55:14;22.87;;;16.05;;
24206;SDS011;12351;52.284;9.160;2024-03-08T14:58:02;21.05;;;15.43;;
24206;SDS011;12351;52.284;9.160;2024-03-08T15:00:49;25.12;;;16.80;;
24206;SDS011;12351;52.284;9.160;2024-03-08T15:03:38;23.67;;;16.40;;
24206;SDS011;12351;52.284;9.160;2024-03-08T15:06:28;25.55;;;16.65;;
24206;SDS011;12351;52.284;9.160;2024-03-08T15:09:18;24.47;;;15.95;;
24206;SDS011;12351;52.284;9.160;2024-03-08T15:12:06;24.52;;;16.57;;
24206;SDS011;12351;52.284;9.160;2024-03-08T15:14:55;24.40;;;17.05;;
24206;SDS011;12351;52.284;9.160;2024-03-08T15:17:42;25.30;;;17.45;;
24206;SDS011;12351;52.284;9.160;2024-03-08T15:20:31;25.68;;;16.30;;
24206;SDS011;12351;52.284;9.160;2024-03-08T15:23:19;23.60;;;15.98;;
24206;SDS011;12351;52.284;9.160;2024-03-08T15:26:06;25.68;;;16.97;;
24206;SDS011;12351;52.284;9.160;2024-03-08T15:28:55;25.40;;;16.52;;
24206;SDS011;12351;52.284;9.160;2024-03-08T15:31:43;26.85;;;17.85;;
24206;SDS011;12351;52.284;9.160;2024-03-08T15:34:30;24.32;;;17.20;;
24206;SDS011;12351;52.284;9.160;2024-03-08T15:37:19;24.00;;;15.85;;
24206;SDS011;12351;52.284;9.160;2024-03-08T15:40:06;27.05;;;16.95;;
24206;SDS011;12351;52.284;9.160;2024-03-08T15:42:56;24.92;;;17.17;;
24206;SDS011;12351;52.284;9.160;2024-03-08T15:45:45;28.73;;;18.15;;
24206;SDS011;12351;52.284;9.160;2024-03-08T15:48:32;24.92;;;16.80;;
24206;SDS011;12351;52.284;9.160;2024-03-08T15:51:21;23.40;;;16.48;;
24206;SDS011;12351;52.284;9.160;2024-03-08T15:54:08;26.45;;;17.52;;
24206;SDS011;12351;52.284;9.160;2024-03-08T15:56:57;26.50;;;18.75;;
24206;SDS011;12351;52.284;9.160;2024-03-08T15:59:44;29.42;;;20.12;;
24206;SDS011;12351;52.284;9.160;2024-03-08T16:02:32;26.90;;;17.75;;
24206;SDS011;12351;52.284;9.160;2024-03-08T16:05:20;28.62;;;18.35;;
24206;SDS011;12351;52.284;9.160;2024-03-08T16:08:07;24.63;;;17.57;;
24206;SDS011;12351;52.284;9.160;2024-03-08T16:10:57;25.55;;;17.00;;
24206;SDS011;12351;52.284;9.160;2024-03-08T16:13:44;27.90;;;17.27;;
24206;SDS011;12351;52.284;9.160;2024-03-08T16:16:32;23.42;;;16.55;;
24206;SDS011;12351;52.284;9.160;2024-03-08T16:19:19;26.87;;;17.57;;
24206;SDS011;12351;52.284;9.160;2024-03-08T16:22:08;26.07;;;18.25;;
24206;SDS011;12351;52.284;9.160;2024-03-08T16:24:56;27.98;;;17.45;;
24206;SDS011;12351;52.284;9.160;2024-03-08T16:27:43;27.80;;;17.52;;
24206;SDS011;12351;52.284;9.160;2024-03-08T16:30:32;25.15;;;16.97;;
24206;SDS011;12351;52.284;9.160;2024-03-08T16:33:19;24.80;;;17.00;;
24206;SDS011;12351;52.284;9.160;2024-03-08T16:39:00;27.98;;;16.73;;
24206;SDS011;12351;52.284;9.160;2024-03-08T16:41:48;27.82;;;17.77;;